createdAt,value
2018-06-20T00:00:35.973Z,1017.69
2018-06-20T00:01:35.999Z,1017.70
2018-06-20T00:02:36.007Z,1017.74
2018-06-20T00:03:36.034Z,1017.73
2018-06-20T00:04:36.063Z,1017.74
2018-06-20T00:05:36.089Z,1017.77
2018-06-20T00:06:36.102Z,1017.74
2018-06-20T00:07:36.127Z,1017.73
2018-06-20T00:08:36.148Z,1017.78
2018-06-20T00:09:36.164Z,1017.74
2018-06-20T00:10:36.194Z,1017.69
2018-06-20T00:11:36.221Z,1017.71
2018-06-20T00:12:36.242Z,1017.73
2018-06-20T00:13:36.255Z,1017.75
2018-06-20T00:14:36.280Z,1017.75
2018-06-20T00:15:36.305Z,1017.79
2018-06-20T00:16:36.338Z,1017.80
2018-06-20T00:17:36.348Z,1017.74
2018-06-20T00:18:36.387Z,1017.76
2018-06-20T00:19:36.400Z,1017.73
2018-06-20T00:20:36.422Z,1017.75
2018-06-20T00:21:36.436Z,1017.75
2018-06-20T00:22:36.464Z,1017.75
2018-06-20T00:23:36.489Z,1017.77
2018-06-20T00:24:36.520Z,1017.75
2018-06-20T00:25:36.533Z,1017.80
2018-06-20T00:26:36.553Z,1017.78
2018-06-20T00:27:36.579Z,1017.77
2018-06-20T00:28:36.609Z,1017.80
2018-06-20T00:29:36.622Z,1017.81
2018-06-20T00:30:36.652Z,1017.78
2018-06-20T00:31:36.676Z,1017.82
2018-06-20T00:32:36.702Z,1017.78
2018-06-20T00:33:36.712Z,1017.83
2018-06-20T00:34:36.742Z,1017.78
2018-06-20T00:35:36.768Z,1017.77
2018-06-20T00:36:36.778Z,1017.78
2018-06-20T00:37:36.804Z,1017.77
2018-06-20T00:38:36.827Z,1017.75
2018-06-20T00:39:36.842Z,1017.77
2018-06-20T00:40:36.870Z,1017.76
2018-06-20T00:41:36.896Z,1017.73
2018-06-20T00:42:36.920Z,1017.74
2018-06-20T00:43:36.934Z,1017.73
2018-06-20T00:44:36.964Z,1017.71
2018-06-20T00:45:36.993Z,1017.74
2018-06-20T00:46:37.005Z,1017.69
2018-06-20T00:47:37.028Z,1017.67
2018-06-20T00:48:37.048Z,1017.70
2018-06-20T00:49:37.077Z,1017.67
2018-06-20T00:50:37.093Z,1017.65
2018-06-20T00:51:37.118Z,1017.60
2018-06-20T00:52:37.170Z,1017.62
2018-06-20T00:53:37.155Z,1017.57
2018-06-20T00:54:37.194Z,1017.61
2018-06-20T00:55:37.207Z,1017.60
2018-06-20T00:56:37.237Z,1017.61
2018-06-20T00:57:37.251Z,1017.58
2018-06-20T00:58:37.271Z,1017.52
2018-06-20T00:59:37.297Z,1017.54
2018-06-20T01:00:37.318Z,1017.55
2018-06-20T01:01:37.354Z,1017.52
2018-06-20T01:02:37.369Z,1017.51
2018-06-20T01:03:37.395Z,1017.49
2018-06-20T01:04:37.404Z,1017.45
2018-06-20T01:05:37.430Z,1017.49
2018-06-20T01:06:37.460Z,1017.47
2018-06-20T01:07:37.488Z,1017.48
2018-06-20T01:08:37.495Z,1017.49
2018-06-20T01:09:37.523Z,1017.51
2018-06-20T01:10:37.534Z,1017.48
2018-06-20T01:11:37.597Z,1017.51
2018-06-20T01:12:37.589Z,1017.50
2018-06-20T01:13:37.615Z,1017.52
2018-06-20T01:14:37.639Z,1017.49
2018-06-20T01:15:37.652Z,1017.48
2018-06-20T01:16:37.682Z,1017.52
2018-06-20T01:17:37.697Z,1017.49
2018-06-20T01:18:37.719Z,1017.47
2018-06-20T01:19:37.748Z,1017.49
2018-06-20T01:20:37.755Z,1017.49
2018-06-20T01:21:37.780Z,1017.54
2018-06-20T01:22:37.813Z,1017.50
2018-06-20T01:23:37.838Z,1017.54
2018-06-20T01:24:38.102Z,1017.50
2018-06-20T01:25:37.874Z,1017.48
2018-06-20T01:26:37.898Z,1017.44
2018-06-20T01:27:37.910Z,1017.48
2018-06-20T01:28:37.942Z,1017.44
2018-06-20T01:29:37.967Z,1017.46
2018-06-20T01:30:37.979Z,1017.41
2018-06-20T01:31:38.004Z,1017.43
2018-06-20T01:32:38.035Z,1017.45
2018-06-20T01:33:38.054Z,1017.49
2018-06-20T01:34:38.072Z,1017.49
2018-06-20T01:35:38.097Z,1017.49
2018-06-20T01:36:38.108Z,1017.46
2018-06-20T01:37:38.134Z,1017.47
2018-06-20T01:38:38.163Z,1017.44
2018-06-20T01:39:38.177Z,1017.49
2018-06-20T01:40:38.198Z,1017.45
2018-06-20T01:41:38.224Z,1017.50
2018-06-20T01:42:38.241Z,1017.52
2018-06-20T01:43:38.266Z,1017.55
2018-06-20T01:44:38.296Z,1017.54
2018-06-20T01:45:38.325Z,1017.57
2018-06-20T01:46:38.329Z,1017.58
2018-06-20T01:47:38.355Z,1017.56
2018-06-20T01:48:38.385Z,1017.60
2018-06-20T01:49:38.400Z,1017.67
2018-06-20T01:50:38.427Z,1017.66
2018-06-20T01:51:38.454Z,1017.66
2018-06-20T01:52:38.462Z,1017.73
2018-06-20T01:53:38.488Z,1017.71
2018-06-20T01:54:38.518Z,1017.72
2018-06-20T01:55:38.556Z,1017.75
2018-06-20T01:56:38.554Z,1017.72
2018-06-20T01:57:38.580Z,1017.71
2018-06-20T01:58:38.604Z,1017.76
2018-06-20T01:59:38.616Z,1017.75
2018-06-20T02:00:38.647Z,1017.72
2018-06-20T02:01:38.661Z,1017.70
2018-06-20T02:02:38.686Z,1017.67
2018-06-20T02:03:38.711Z,1017.70
2018-06-20T02:04:38.727Z,1017.69
2018-06-20T02:05:38.753Z,1017.71
2018-06-20T02:06:38.780Z,1017.73
2018-06-20T02:07:38.802Z,1017.72
2018-06-20T02:08:38.813Z,1017.73
2018-06-20T02:09:38.839Z,1017.72
2018-06-20T02:10:38.857Z,1017.76
2018-06-20T02:11:38.881Z,1017.76
2018-06-20T02:12:38.904Z,1017.78
2018-06-20T02:13:38.920Z,1017.76
2018-06-20T02:14:38.946Z,1017.76
2018-06-20T02:15:38.972Z,1017.75
2018-06-20T02:16:39.004Z,1017.76
2018-06-20T02:17:39.014Z,1017.79
2018-06-20T02:18:39.035Z,1017.77
2018-06-20T02:19:39.060Z,1017.76
2018-06-20T02:20:39.090Z,1017.75
2018-06-20T02:21:39.105Z,1017.75
2018-06-20T02:22:39.133Z,1017.70
2018-06-20T02:23:39.145Z,1017.73
2018-06-20T02:24:39.167Z,1017.68
2018-06-20T02:25:39.193Z,1017.68
2018-06-20T02:26:39.219Z,1017.69
2018-06-20T02:27:39.233Z,1017.65
2018-06-20T02:28:39.263Z,1017.70
2018-06-20T02:29:39.289Z,1017.71
2018-06-20T02:30:39.300Z,1017.73
2018-06-20T02:31:39.326Z,1017.72
2018-06-20T02:32:39.347Z,1017.76
2018-06-20T02:33:39.362Z,1017.78
2018-06-20T02:34:39.395Z,1017.80
2018-06-20T02:35:39.425Z,1017.82
2018-06-20T02:36:39.493Z,1017.85
2018-06-20T02:37:39.464Z,1017.89
2018-06-20T02:38:39.479Z,1017.85
2018-06-20T02:39:39.505Z,1017.84
2018-06-20T02:40:39.524Z,1017.77
2018-06-20T02:41:39.550Z,1017.73
2018-06-20T02:42:39.570Z,1017.69
2018-06-20T02:43:39.597Z,1017.70
2018-06-20T02:44:39.613Z,1017.75
2018-06-20T02:45:39.641Z,1017.80
2018-06-20T02:46:39.671Z,1017.82
2018-06-20T02:47:39.681Z,1017.79
2018-06-20T02:48:39.703Z,1017.81
2018-06-20T02:49:39.730Z,1017.81
2018-06-20T02:50:39.757Z,1017.81
2018-06-20T02:51:39.769Z,1017.79
2018-06-20T02:52:39.808Z,1017.77
2018-06-20T02:53:39.818Z,1017.75
2018-06-20T02:54:39.834Z,1017.75
2018-06-20T02:55:39.859Z,1017.79
2018-06-20T02:56:39.893Z,1017.78
2018-06-20T02:57:39.915Z,1017.82
2018-06-20T02:58:39.924Z,1017.83
2018-06-20T02:59:39.950Z,1017.86
2018-06-20T03:00:39.980Z,1017.79
2018-06-20T03:01:39.995Z,1017.81
2018-06-20T03:02:40.019Z,1017.82
2018-06-20T03:03:40.047Z,1017.86
2018-06-20T03:04:40.066Z,1017.84
2018-06-20T03:05:40.083Z,1017.90
2018-06-20T03:06:40.111Z,1017.89
2018-06-20T03:07:40.136Z,1017.91
2018-06-20T03:08:40.159Z,1017.92
2018-06-20T03:09:40.172Z,1017.91
2018-06-20T03:10:40.197Z,1017.87
2018-06-20T03:11:40.223Z,1017.89
2018-06-20T03:12:40.242Z,1017.89
2018-06-20T03:13:40.267Z,1017.82
2018-06-20T03:14:40.287Z,1017.80
2018-06-20T03:15:40.313Z,1017.86
2018-06-20T03:16:40.331Z,1017.90
2018-06-20T03:17:40.357Z,1017.86
2018-06-20T03:18:40.385Z,1017.87
2018-06-20T03:19:40.411Z,1017.89
2018-06-20T03:20:40.420Z,1017.90
2018-06-20T03:21:40.446Z,1017.90
2018-06-20T03:22:40.474Z,1017.91
2018-06-20T03:23:40.499Z,1017.95
2018-06-20T03:24:40.511Z,1017.94
2018-06-20T03:25:40.536Z,1017.98
2018-06-20T03:26:40.564Z,1017.99
2018-06-20T03:27:40.578Z,1017.95
2018-06-20T03:28:40.606Z,1017.95
2018-06-20T03:29:40.633Z,1017.91
2018-06-20T03:30:40.652Z,1017.93
2018-06-20T03:31:40.667Z,1017.91
2018-06-20T03:32:40.697Z,1017.91
2018-06-20T03:33:40.722Z,1017.90
2018-06-20T03:34:40.750Z,1017.92
2018-06-20T03:35:40.764Z,1017.93
2018-06-20T03:36:40.785Z,1017.98
2018-06-20T03:37:40.811Z,1017.94
2018-06-20T03:38:40.841Z,1017.96
2018-06-20T03:39:40.855Z,1017.92
2018-06-20T03:40:40.875Z,1017.96
2018-06-20T03:41:40.900Z,1017.97
2018-06-20T03:42:40.931Z,1017.97
2018-06-20T03:43:40.943Z,1017.98
2018-06-20T03:44:40.972Z,1017.95
2018-06-20T03:45:40.998Z,1017.98
2018-06-20T03:46:41.020Z,1018.02
2018-06-20T03:47:41.058Z,1018.03
2018-06-20T03:48:41.064Z,1017.99
2018-06-20T03:49:41.092Z,1017.99
2018-06-20T03:50:41.114Z,1018.03
2018-06-20T03:51:41.145Z,1018.03
2018-06-20T03:52:41.149Z,1018.03
2018-06-20T03:53:41.175Z,1018.05
2018-06-20T03:54:41.219Z,1018.01
2018-06-20T03:55:41.233Z,1018.06
2018-06-20T03:56:41.243Z,1018.08
2018-06-20T03:57:41.268Z,1018.05
2018-06-20T03:58:41.293Z,1018.02
2018-06-20T03:59:41.319Z,1018.04
2018-06-20T04:00:41.348Z,1018.05
2018-06-20T04:01:41.361Z,1018.00
2018-06-20T04:02:41.383Z,1018.03
2018-06-20T04:03:41.408Z,1018.04
2018-06-20T04:04:41.439Z,1018.03
2018-06-20T04:05:41.454Z,1018.01
2018-06-20T04:06:41.481Z,1018.03
2018-06-20T04:07:41.513Z,1018.03
2018-06-20T04:08:41.531Z,1018.02
2018-06-20T04:09:41.542Z,1018.04
2018-06-20T04:10:41.569Z,1018.03
2018-06-20T04:11:41.596Z,1018.04
2018-06-20T04:12:41.653Z,1018.07
2018-06-20T04:13:41.643Z,1018.10
2018-06-20T04:14:41.660Z,1018.07
2018-06-20T04:15:41.696Z,1018.09
2018-06-20T04:16:41.717Z,1018.03
2018-06-20T04:17:41.741Z,1018.03
2018-06-20T04:18:41.772Z,1018.02
2018-06-20T04:19:41.776Z,1017.98
2018-06-20T04:20:41.806Z,1018.03
2018-06-20T04:21:41.833Z,1018.03
2018-06-20T04:22:41.856Z,1018.00
2018-06-20T04:23:41.883Z,1018.02
2018-06-20T04:24:41.892Z,1018.03
2018-06-20T04:25:41.918Z,1017.98
2018-06-20T04:26:41.951Z,1018.04
2018-06-20T04:27:41.976Z,1018.01
2018-06-20T04:28:42.002Z,1018.05
2018-06-20T04:29:42.023Z,1018.00
2018-06-20T04:30:42.034Z,1018.02
2018-06-20T04:31:42.060Z,1018.01
2018-06-20T04:32:42.091Z,1018.02
2018-06-20T04:33:42.115Z,1018.03
2018-06-20T04:34:42.199Z,1018.03
2018-06-20T04:35:42.157Z,1018.04
2018-06-20T04:36:42.178Z,1018.01
2018-06-20T04:37:42.206Z,1018.01
2018-06-20T04:38:42.234Z,1017.99
2018-06-20T04:39:42.258Z,1017.98
2018-06-20T04:40:42.275Z,1017.97
2018-06-20T04:41:42.300Z,1018.05
2018-06-20T04:42:42.320Z,1018.04
2018-06-20T04:43:42.346Z,1018.10
2018-06-20T04:44:42.403Z,1018.06
2018-06-20T04:45:42.391Z,1018.09
2018-06-20T04:46:42.419Z,1018.08
2018-06-20T04:47:42.473Z,1018.07
2018-06-20T04:48:42.465Z,1018.11
2018-06-20T04:49:42.492Z,1018.11
2018-06-20T04:50:42.522Z,1018.10
2018-06-20T04:51:42.536Z,1018.10
2018-06-20T04:52:42.559Z,1018.07
2018-06-20T04:53:42.582Z,1018.08
2018-06-20T04:54:42.606Z,1018.04
2018-06-20T04:55:42.632Z,1018.06
2018-06-20T04:56:42.662Z,1018.03
2018-06-20T04:57:42.676Z,1018.05
2018-06-20T04:58:42.700Z,1018.09
2018-06-20T04:59:42.726Z,1018.08
2018-06-20T05:00:42.756Z,1018.07
2018-06-20T05:01:42.783Z,1018.09
2018-06-20T05:02:42.806Z,1018.08
2018-06-20T05:03:42.832Z,1018.08
2018-06-20T05:04:42.853Z,1018.09
2018-06-20T05:05:42.867Z,1018.06
2018-06-20T05:06:42.897Z,1018.08
2018-06-20T05:07:42.923Z,1018.03
2018-06-20T05:08:42.946Z,1018.02
2018-06-20T05:09:42.971Z,1018.04
2018-06-20T05:10:42.987Z,1018.00
2018-06-20T05:11:43.013Z,1017.99
2018-06-20T05:12:43.044Z,1017.96
2018-06-20T05:13:43.069Z,1017.93
2018-06-20T05:14:43.089Z,1017.93
2018-06-20T05:15:43.114Z,1017.92
2018-06-20T05:16:43.145Z,1017.96
2018-06-20T05:17:43.157Z,1017.90
2018-06-20T05:18:43.186Z,1017.96
2018-06-20T05:19:43.225Z,1017.94
2018-06-20T05:20:43.246Z,1017.92
2018-06-20T05:21:43.259Z,1017.89
2018-06-20T05:22:43.434Z,1017.92
2018-06-20T05:23:43.315Z,1017.90
2018-06-20T05:24:43.327Z,1017.93
2018-06-20T05:25:43.352Z,1017.89
2018-06-20T05:26:43.375Z,1017.92
2018-06-20T05:27:43.402Z,1017.95
2018-06-20T05:28:43.432Z,1017.91
2018-06-20T05:29:43.457Z,1017.91
2018-06-20T05:30:43.481Z,1017.89
2018-06-20T05:31:43.496Z,1017.91
2018-06-20T05:32:43.581Z,1017.89
2018-06-20T05:33:43.550Z,1017.90
2018-06-20T05:34:43.573Z,1017.89
2018-06-20T05:35:43.599Z,1017.97
2018-06-20T05:36:43.621Z,1017.94
2018-06-20T05:37:43.647Z,1017.98
2018-06-20T05:38:43.680Z,1017.93
2018-06-20T05:39:43.693Z,1017.95
2018-06-20T05:40:43.726Z,1017.95
2018-06-20T05:41:43.761Z,1017.94
2018-06-20T05:42:43.765Z,1017.98
2018-06-20T05:43:43.792Z,1017.94
2018-06-20T05:44:43.820Z,1017.98
2018-06-20T05:45:43.849Z,1017.94
2018-06-20T05:46:43.870Z,1017.93
2018-06-20T05:47:43.884Z,1017.96
2018-06-20T05:48:43.927Z,1017.94
2018-06-20T05:49:43.940Z,1017.93
2018-06-20T05:50:43.964Z,1017.93
2018-06-20T05:51:43.989Z,1017.93
2018-06-20T05:52:44.011Z,1017.93
2018-06-20T05:53:44.037Z,1017.91
2018-06-20T05:54:44.067Z,1017.97
2018-06-20T05:55:44.095Z,1017.98
2018-06-20T05:56:44.115Z,1017.96
2018-06-20T05:57:44.130Z,1017.94
2018-06-20T05:58:44.157Z,1017.99
2018-06-20T05:59:44.183Z,1017.97
2018-06-20T06:00:44.213Z,1017.93
2018-06-20T06:01:44.239Z,1017.95
2018-06-20T06:02:44.258Z,1017.94
2018-06-20T06:03:44.285Z,1017.93
2018-06-20T06:04:44.314Z,1017.97
2018-06-20T06:05:44.341Z,1017.93
2018-06-20T06:06:44.369Z,1017.94
2018-06-20T06:07:44.394Z,1018.00
2018-06-20T06:08:44.416Z,1018.00
2018-06-20T06:09:44.441Z,1018.01
2018-06-20T06:10:44.459Z,1018.02
2018-06-20T06:11:44.485Z,1018.02
2018-06-20T06:12:44.507Z,1018.02
2018-06-20T06:13:44.533Z,1018.04
2018-06-20T06:14:44.557Z,1017.96
2018-06-20T06:15:44.583Z,1018.02
2018-06-20T06:16:44.639Z,1018.00
2018-06-20T06:17:44.640Z,1018.02
2018-06-20T06:18:44.663Z,1018.00
2018-06-20T06:19:44.694Z,1018.02
2018-06-20T06:20:44.719Z,1018.02
2018-06-20T06:21:44.746Z,1018.00
2018-06-20T06:22:44.769Z,1018.02
2018-06-20T06:23:44.795Z,1018.04
2018-06-20T06:24:44.830Z,1017.99
2018-06-20T06:25:44.843Z,1018.02
2018-06-20T06:26:44.873Z,1018.07
2018-06-20T06:27:44.898Z,1018.06
2018-06-20T06:28:44.920Z,1018.04
2018-06-20T06:29:44.939Z,1018.05
2018-06-20T06:30:44.963Z,1018.09
2018-06-20T06:31:44.990Z,1018.09
2018-06-20T06:32:45.022Z,1018.06
2018-06-20T06:33:45.045Z,1018.04
2018-06-20T06:34:45.065Z,1018.06
2018-06-20T06:35:45.092Z,1018.05
2018-06-20T06:36:45.121Z,1018.08
2018-06-20T06:37:45.188Z,1018.06
2018-06-20T06:38:45.186Z,1018.08
2018-06-20T06:39:45.200Z,1018.05
2018-06-20T06:40:45.222Z,1018.10
2018-06-20T06:41:45.248Z,1018.11
2018-06-20T06:42:45.274Z,1018.09
2018-06-20T06:43:45.313Z,1018.16
2018-06-20T06:44:45.343Z,1018.13
2018-06-20T06:45:45.381Z,1018.13
2018-06-20T06:46:45.391Z,1018.10
2018-06-20T06:47:45.418Z,1018.10
2018-06-20T06:48:45.440Z,1018.11
2018-06-20T06:49:45.551Z,1018.15
2018-06-20T06:50:45.498Z,1018.11
2018-06-20T06:51:45.524Z,1018.10
2018-06-20T06:52:45.549Z,1018.12
2018-06-20T06:53:45.571Z,1018.13
2018-06-20T06:54:45.596Z,1018.07
2018-06-20T06:55:45.621Z,1018.05
2018-06-20T06:56:45.651Z,1018.06
2018-06-20T06:57:45.677Z,1018.05
2018-06-20T06:58:45.699Z,1018.08
2018-06-20T06:59:45.726Z,1018.04
2018-06-20T07:00:45.769Z,1018.06
2018-06-20T07:01:45.795Z,1018.03
2018-06-20T07:02:45.836Z,1018.04
2018-06-20T07:03:45.848Z,1018.06
2018-06-20T07:04:45.870Z,1018.05
2018-06-20T07:05:45.897Z,1018.06
2018-06-20T07:06:45.924Z,1018.06
2018-06-20T07:07:45.961Z,1018.02
2018-06-20T07:08:45.996Z,1017.99
2018-06-20T07:09:46.009Z,1017.98
2018-06-20T07:10:46.037Z,1018.02
2018-06-20T07:11:46.063Z,1017.97
2018-06-20T07:12:46.093Z,1017.99
2018-06-20T07:13:46.120Z,1018.00
2018-06-20T07:14:46.155Z,1018.08
2018-06-20T07:15:46.182Z,1018.07
2018-06-20T07:16:46.212Z,1018.09
2018-06-20T07:17:46.236Z,1018.11
2018-06-20T07:18:46.261Z,1018.09
2018-06-20T07:19:46.301Z,1018.12
2018-06-20T07:20:46.320Z,1018.16
2018-06-20T07:21:46.345Z,1018.14
2018-06-20T07:22:46.391Z,1018.15
2018-06-20T07:23:46.403Z,1018.25
2018-06-20T07:24:46.438Z,1018.15
2018-06-20T07:25:46.465Z,1018.15
2018-06-20T07:26:46.490Z,1018.07
2018-06-20T07:27:46.526Z,1018.12
2018-06-20T07:28:46.557Z,1018.13
2018-06-20T07:29:46.590Z,1018.14
2018-06-20T07:30:46.605Z,1018.13
2018-06-20T07:31:46.643Z,1018.13
2018-06-20T07:32:46.672Z,1018.10
2018-06-20T07:33:46.699Z,1018.08
2018-06-20T07:34:46.739Z,1018.11
2018-06-20T07:35:46.847Z,1018.07
2018-06-20T07:36:46.804Z,1018.14
2018-06-20T07:37:46.827Z,1018.17
2018-06-20T07:38:46.853Z,1018.15
2018-06-20T07:39:46.891Z,1018.16
2018-06-20T07:40:46.914Z,1018.16
2018-06-20T07:41:46.952Z,1018.15
2018-06-20T07:42:46.980Z,1018.14
2018-06-20T07:43:47.010Z,1018.14
2018-06-20T07:44:47.048Z,1018.18
2018-06-20T07:45:47.074Z,1018.08
2018-06-20T07:46:47.108Z,1018.09
2018-06-20T07:47:47.145Z,1018.08
2018-06-20T07:48:47.175Z,1018.02
2018-06-20T07:49:47.200Z,1018.08
2018-06-20T07:50:47.244Z,1018.05
2018-06-20T07:51:47.268Z,1018.05
2018-06-20T07:52:47.302Z,1018.08
2018-06-20T07:53:47.328Z,1018.06
2018-06-20T07:54:47.356Z,1018.04
2018-06-20T07:55:47.410Z,1017.99
2018-06-20T07:56:47.418Z,1018.00
2018-06-20T07:57:47.455Z,1018.01
2018-06-20T07:58:47.483Z,1018.02
2018-06-20T07:59:47.521Z,1017.99
2018-06-20T08:00:47.580Z,1017.99
2018-06-20T08:01:47.590Z,1018.00
2018-06-20T08:02:47.612Z,1018.03
2018-06-20T08:03:47.651Z,1018.05
2018-06-20T08:04:47.681Z,1018.08
2018-06-20T08:05:47.718Z,1018.04
2018-06-20T08:06:47.755Z,1018.04
2018-06-20T08:07:47.781Z,1018.02
2018-06-20T08:08:47.803Z,1018.00
2018-06-20T08:09:47.841Z,1018.01
2018-06-20T08:10:47.873Z,1018.04
2018-06-20T08:11:47.911Z,1018.00
2018-06-20T08:12:47.946Z,1017.99
2018-06-20T08:13:47.974Z,1018.02
2018-06-20T08:14:48.009Z,1017.98
2018-06-20T08:15:48.036Z,1017.98
2018-06-20T08:16:48.076Z,1018.00
2018-06-20T08:17:48.105Z,1017.97
2018-06-20T08:18:48.192Z,1017.96
2018-06-20T08:19:48.163Z,1017.97
2018-06-20T08:20:48.207Z,1017.99
2018-06-20T08:21:48.292Z,1018.01
2018-06-20T08:22:48.276Z,1017.99
2018-06-20T08:23:48.310Z,1017.99
2018-06-20T08:24:48.331Z,1017.97
2018-06-20T08:25:48.416Z,1018.01
2018-06-20T08:26:48.399Z,1017.97
2018-06-20T08:27:48.436Z,1017.95
2018-06-20T08:28:48.458Z,1017.98
2018-06-20T08:29:48.497Z,1017.92
2018-06-20T08:30:48.527Z,1017.93
2018-06-20T08:31:48.563Z,1017.95
2018-06-20T08:32:48.608Z,1017.91
2018-06-20T08:33:48.633Z,1017.91
2018-06-20T08:34:48.667Z,1017.93
2018-06-20T08:35:48.692Z,1017.91
2018-06-20T08:36:48.735Z,1017.93
2018-06-20T08:37:48.763Z,1017.94
2018-06-20T08:38:48.796Z,1017.90
2018-06-20T08:39:48.839Z,1017.91
2018-06-20T08:40:48.858Z,1017.82
2018-06-20T08:41:48.895Z,1017.87
2018-06-20T08:42:48.928Z,1017.81
2018-06-20T08:43:48.968Z,1017.75
2018-06-20T08:44:49.000Z,1017.80
2018-06-20T08:45:49.027Z,1017.82
2018-06-20T08:46:49.063Z,1017.84
2018-06-20T08:47:49.089Z,1017.83
2018-06-20T08:48:49.144Z,1017.80
2018-06-20T08:49:49.176Z,1017.79
2018-06-20T08:50:49.199Z,1017.74
2018-06-20T08:51:49.234Z,1017.74
2018-06-20T08:52:49.256Z,1017.71
2018-06-20T08:53:49.295Z,1017.66
2018-06-20T08:54:49.334Z,1017.64
2018-06-20T08:55:49.360Z,1017.68
2018-06-20T08:56:49.404Z,1017.66
2018-06-20T08:57:49.430Z,1017.65
2018-06-20T08:58:49.476Z,1017.65
2018-06-20T08:59:49.503Z,1017.65
2018-06-20T09:00:49.532Z,1017.65
2018-06-20T09:01:49.570Z,1017.67
2018-06-20T09:02:49.597Z,1017.68
2018-06-20T09:03:49.638Z,1017.67
2018-06-20T09:04:49.669Z,1017.60
2018-06-20T09:05:49.707Z,1017.63
2018-06-20T09:06:49.739Z,1017.65
2018-06-20T09:07:49.781Z,1017.65
2018-06-20T09:08:49.800Z,1017.66
2018-06-20T09:09:49.836Z,1017.63
2018-06-20T09:10:49.862Z,1017.62
2018-06-20T09:11:49.900Z,1017.65
2018-06-20T09:12:49.941Z,1017.60
2018-06-20T09:13:49.967Z,1017.59
2018-06-20T09:14:50.004Z,1017.65
2018-06-20T09:15:50.046Z,1017.63
2018-06-20T09:16:50.073Z,1017.64
2018-06-20T09:17:50.111Z,1017.63
2018-06-20T09:18:50.135Z,1017.63
2018-06-20T09:19:50.174Z,1017.55
2018-06-20T09:20:50.207Z,1017.55
2018-06-20T09:21:50.233Z,1017.54
2018-06-20T09:22:50.275Z,1017.51
2018-06-20T09:23:50.313Z,1017.51
2018-06-20T09:24:50.336Z,1017.52
2018-06-20T09:25:50.375Z,1017.52
2018-06-20T09:26:50.402Z,1017.53
2018-06-20T09:27:50.457Z,1017.53
2018-06-20T09:28:50.484Z,1017.48
2018-06-20T09:29:50.515Z,1017.53
2018-06-20T09:30:50.541Z,1017.53
2018-06-20T09:31:50.567Z,1017.49
2018-06-20T09:32:50.610Z,1017.49
2018-06-20T09:33:50.652Z,1017.50
2018-06-20T09:34:50.688Z,1017.46
2018-06-20T09:35:50.716Z,1017.44
2018-06-20T09:36:50.737Z,1017.45
2018-06-20T09:37:50.774Z,1017.45
2018-06-20T09:38:50.818Z,1017.42
2018-06-20T09:39:50.845Z,1017.38
2018-06-20T09:40:50.877Z,1017.41
2018-06-20T09:41:50.904Z,1017.34
2018-06-20T09:42:50.945Z,1017.34
2018-06-20T09:43:50.978Z,1017.29
2018-06-20T09:44:51.008Z,1017.33
2018-06-20T09:45:51.047Z,1017.32
2018-06-20T09:46:51.072Z,1017.30
2018-06-20T09:47:51.109Z,1017.29
2018-06-20T09:48:51.152Z,1017.30
2018-06-20T09:49:51.179Z,1017.33
2018-06-20T09:50:51.213Z,1017.29
2018-06-20T09:51:51.253Z,1017.30
2018-06-20T09:52:51.275Z,1017.28
2018-06-20T09:53:51.313Z,1017.27
2018-06-20T09:54:51.345Z,1017.24
2018-06-20T09:55:51.384Z,1017.21
2018-06-20T09:56:51.430Z,1017.27
2018-06-20T09:57:51.451Z,1017.28
2018-06-20T09:58:51.485Z,1017.28
2018-06-20T09:59:51.518Z,1017.25
2018-06-20T10:00:51.548Z,1017.25
2018-06-20T10:01:51.588Z,1017.24
2018-06-20T10:02:51.623Z,1017.19
2018-06-20T10:03:51.661Z,1017.16
2018-06-20T10:04:51.692Z,1017.04
2018-06-20T10:05:51.733Z,1016.93
2018-06-20T10:06:51.836Z,1016.90
2018-06-20T10:07:51.794Z,1016.87
2018-06-20T10:08:51.826Z,1016.89
2018-06-20T10:09:51.869Z,1016.86
2018-06-20T10:10:51.921Z,1016.89
2018-06-20T10:11:51.934Z,1016.91
2018-06-20T10:12:51.969Z,1016.92
2018-06-20T10:13:52.008Z,1016.97
2018-06-20T10:14:52.048Z,1016.97
2018-06-20T10:15:52.090Z,1016.98
2018-06-20T10:16:52.115Z,1017.01
2018-06-20T10:17:52.155Z,1016.96
2018-06-20T10:18:52.185Z,1016.95
2018-06-20T10:19:52.225Z,1016.90
2018-06-20T10:20:52.263Z,1016.92
2018-06-20T10:21:52.292Z,1016.95
2018-06-20T10:22:52.333Z,1016.95
2018-06-20T10:23:52.372Z,1016.93
2018-06-20T10:24:52.408Z,1016.91
2018-06-20T10:25:52.435Z,1016.91
2018-06-20T10:26:52.475Z,1016.86
2018-06-20T10:27:52.502Z,1016.86
2018-06-20T10:28:52.535Z,1016.89
2018-06-20T10:29:52.573Z,1016.83
2018-06-20T10:30:52.610Z,1016.80
2018-06-20T10:31:52.636Z,1016.78
2018-06-20T10:32:52.679Z,1016.79
2018-06-20T10:33:52.717Z,1016.79
2018-06-20T10:34:52.742Z,1016.74
2018-06-20T10:35:52.780Z,1016.71
2018-06-20T10:36:52.822Z,1016.69
2018-06-20T10:37:52.860Z,1016.68
2018-06-20T10:38:52.883Z,1016.68
2018-06-20T10:39:52.936Z,1016.64
2018-06-20T10:40:52.957Z,1016.61
2018-06-20T10:41:53.003Z,1016.61
2018-06-20T10:42:53.026Z,1016.60
2018-06-20T10:43:53.064Z,1016.58
2018-06-20T10:44:53.100Z,1016.53
2018-06-20T10:45:53.129Z,1016.55
2018-06-20T10:46:53.164Z,1016.54
2018-06-20T10:47:53.202Z,1016.48
2018-06-20T10:48:53.245Z,1016.48
2018-06-20T10:49:53.271Z,1016.42
2018-06-20T10:50:53.303Z,1016.36
2018-06-20T10:51:53.388Z,1016.37
2018-06-20T10:52:53.385Z,1016.38
2018-06-20T10:53:53.411Z,1016.39
2018-06-20T10:54:53.451Z,1016.38
2018-06-20T10:55:53.489Z,1016.38
2018-06-20T10:56:53.524Z,1016.41
2018-06-20T10:57:53.564Z,1016.40
2018-06-20T10:58:53.600Z,1016.39
2018-06-20T10:59:53.626Z,1016.39
2018-06-20T11:00:53.669Z,1016.36
2018-06-20T11:01:53.708Z,1016.34
2018-06-20T11:02:53.747Z,1016.33
2018-06-20T11:03:53.782Z,1016.27
2018-06-20T11:04:53.820Z,1016.28
2018-06-20T11:05:53.844Z,1016.27
2018-06-20T11:06:53.887Z,1016.23
2018-06-20T11:07:53.930Z,1016.22
2018-06-20T11:08:53.959Z,1016.17
2018-06-20T11:09:54.003Z,1016.18
2018-06-20T11:10:54.034Z,1016.15
2018-06-20T11:11:54.061Z,1016.04
2018-06-20T11:12:54.103Z,1015.96
2018-06-20T11:13:54.147Z,1015.98
2018-06-20T11:14:54.177Z,1015.95
2018-06-20T11:15:54.215Z,1015.96
2018-06-20T11:16:54.257Z,1016.00
2018-06-20T11:17:54.283Z,1016.00
2018-06-20T11:18:54.323Z,1016.01
2018-06-20T11:19:54.362Z,1016.05
2018-06-20T11:20:54.396Z,1016.05
2018-06-20T11:21:54.422Z,1016.02
2018-06-20T11:22:54.466Z,1016.04
2018-06-20T11:23:54.500Z,1016.01
2018-06-20T11:24:54.541Z,1016.00
2018-06-20T11:25:54.561Z,1015.97
2018-06-20T11:26:54.602Z,1015.94
2018-06-20T11:27:54.641Z,1015.91
2018-06-20T11:28:54.670Z,1015.87
2018-06-20T11:29:54.709Z,1015.84
2018-06-20T11:30:54.745Z,1015.82
2018-06-20T11:31:54.768Z,1015.81
2018-06-20T11:32:54.811Z,1015.69
2018-06-20T11:33:54.850Z,1015.70
2018-06-20T11:34:54.874Z,1015.71
2018-06-20T11:35:54.912Z,1015.68
2018-06-20T11:36:54.947Z,1015.70
2018-06-20T11:37:54.972Z,1015.70
2018-06-20T11:38:55.017Z,1015.74
2018-06-20T11:39:55.056Z,1015.79
2018-06-20T11:40:55.077Z,1015.77
2018-06-20T11:41:55.115Z,1015.79
2018-06-20T11:42:55.139Z,1015.72
2018-06-20T11:43:55.178Z,1015.67
2018-06-20T11:44:55.207Z,1015.65
2018-06-20T11:45:55.247Z,1015.56
2018-06-20T11:46:55.281Z,1015.57
2018-06-20T11:47:55.307Z,1015.59
2018-06-20T11:48:55.349Z,1015.56
2018-06-20T11:49:55.443Z,1015.55
2018-06-20T11:50:55.416Z,1015.53
2018-06-20T11:51:55.453Z,1015.58
2018-06-20T11:52:55.476Z,1015.56
2018-06-20T11:53:55.514Z,1015.57
2018-06-20T11:54:55.543Z,1015.54
2018-06-20T11:55:55.583Z,1015.55
2018-06-20T11:56:55.604Z,1015.57
2018-06-20T11:57:55.641Z,1015.52
2018-06-20T11:58:55.682Z,1015.46
2018-06-20T11:59:55.707Z,1015.51
2018-06-20T12:00:55.750Z,1015.51
2018-06-20T12:01:55.823Z,1015.50
2018-06-20T12:02:55.808Z,1015.49
2018-06-20T12:03:55.902Z,1015.45
2018-06-20T12:04:55.877Z,1015.45
2018-06-20T12:05:55.915Z,1015.46